CYAZ

Tofino/Long Beach  Airport

Tofino, British Columbia, Canada

CYAZ 250100Z 17012G23KT 10SM VCSH FEW008 FEW013 BKN016 OVC039 11/09 A2990 RMK CF1CF2CU3SC3 CF TR LAST STFD OBS/NEXT 251500UTC SLP127

Observed Flight Rules
Nov-25 @ 01:00 UTC (52 minutes ago)
 
Marginal Visual Flight Rules
Wind Visibility Clouds
170° at 12 knots
 Gusting to 23 knots
10 miles
  • Few at 800' AGL
  • Few at 1,300' AGL
  • Broken at 1,600' AGL
  • Overcast at 3,900' AGL
Temperatures Readings
Current 11°C / 52°F
Dewpoint 9°C / 48°F
Humidity 88%
Altimeter 29.9" Hg
Pressure 1012.7 hPa
Elevation 24
Observed Flight Rules
Nov-25 @ 01:00 UTC
(52 minutes ago)
 
MVFR
Wind Visibility
170° at 12 knots
 Gusting to 23 knots
10 miles
Clouds
  • Few at 800' AGL
  • Few at 1,300' AGL
  • Broken at 1,600' AGL
  • Overcast at 3,900' AGL
Temperature Dewpoint
11°C / 52°F 9°C / 48°F
Humidity Altimeter Pressure
88% 29.9" Hg 1012.7 hPa